sensor_id;sensor_type;location;lat;lon;timestamp;temperature;humidity
37702;DHT22;23548;51.196;6.838;2023-01-15T00:01:27;8.10;99.90
37702;DHT22;23548;51.196;6.838;2023-01-15T00:03:55;8.00;99.90
37702;DHT22;23548;51.196;6.838;2023-01-15T00:06:22;7.90;99.90
37702;DHT22;23548;51.196;6.838;2023-01-15T00:08:48;7.80;99.90
37702;DHT22;23548;51.196;6.838;2023-01-15T00:11:15;7.70;99.90
37702;DHT22;23548;51.196;6.838;2023-01-15T00:13:43;7.60;99.90
37702;DHT22;23548;51.196;6.838;2023-01-15T00:16:20;7.50;99.90
37702;DHT22;23548;51.196;6.838;2023-01-15T00:18:53;7.40;99.90
37702;DHT22;23548;51.196;6.838;2023-01-15T00:21:20;7.40;99.90
37702;DHT22;23548;51.196;6.838;2023-01-15T00:23:46;7.50;99.90
37702;DHT22;23548;51.196;6.838;2023-01-15T00:26:32;7.50;99.90
37702;DHT22;23548;51.196;6.838;2023-01-15T00:29:17;7.60;99.90
37702;DHT22;23548;51.196;6.838;2023-01-15T00:34:18;7.50;99.90
37702;DHT22;23548;51.196;6.838;2023-01-15T00:36:44;7.50;99.90
37702;DHT22;23548;51.196;6.838;2023-01-15T00:39:10;7.50;99.90
37702;DHT22;23548;51.196;6.838;2023-01-15T00:41:36;7.50;99.90
37702;DHT22;23548;51.196;6.838;2023-01-15T00:44:01;7.50;99.90
37702;DHT22;23548;51.196;6.838;2023-01-15T00:46:27;7.50;99.90
37702;DHT22;23548;51.196;6.838;2023-01-15T00:48:53;7.40;99.90
37702;DHT22;23548;51.196;6.838;2023-01-15T00:51:19;7.40;99.90
37702;DHT22;23548;51.196;6.838;2023-01-15T00:53:45;7.40;99.90
37702;DHT22;23548;51.196;6.838;2023-01-15T00:56:10;7.30;99.90
37702;DHT22;23548;51.196;6.838;2023-01-15T00:58:36;7.30;99.90
37702;DHT22;23548;51.196;6.838;2023-01-15T01:01:02;7.30;99.90
37702;DHT22;23548;51.196;6.838;2023-01-15T01:03:28;7.20;99.90
37702;DHT22;23548;51.196;6.838;2023-01-15T01:06:01;7.20;99.90
37702;DHT22;23548;51.196;6.838;2023-01-15T01:08:28;7.10;99.90
37702;DHT22;23548;51.196;6.838;2023-01-15T01:11:05;7.10;99.90
37702;DHT22;23548;51.196;6.838;2023-01-15T01:13:32;7.10;99.90
37702;DHT22;23548;51.196;6.838;2023-01-15T01:15:58;7.10;99.90
37702;DHT22;23548;51.196;6.838;2023-01-15T01:18:23;7.10;99.90
37702;DHT22;23548;51.196;6.838;2023-01-15T01:20:49;7.10;99.90
37702;DHT22;23548;51.196;6.838;2023-01-15T01:23:15;7.10;99.90
37702;DHT22;23548;51.196;6.838;2023-01-15T01:25:41;7.10;99.90
37702;DHT22;23548;51.196;6.838;2023-01-15T01:28:07;7.30;99.90
37702;DHT22;23548;51.196;6.838;2023-01-15T01:30:32;7.10;99.90
37702;DHT22;23548;51.196;6.838;2023-01-15T01:32:58;7.10;99.90
37702;DHT22;23548;51.196;6.838;2023-01-15T01:35:24;7.10;99.90
37702;DHT22;23548;51.196;6.838;2023-01-15T01:37:50;7.20;99.90
37702;DHT22;23548;51.196;6.838;2023-01-15T01:40:16;7.20;99.90
37702;DHT22;23548;51.196;6.838;2023-01-15T01:42:42;7.20;99.90
37702;DHT22;23548;51.196;6.838;2023-01-15T01:45:28;7.20;99.90
37702;DHT22;23548;51.196;6.838;2023-01-15T01:48:02;7.20;99.90
37702;DHT22;23548;51.196;6.838;2023-01-15T01:50:31;7.20;99.90
37702;DHT22;23548;51.196;6.838;2023-01-15T01:53:15;7.20;99.90
37702;DHT22;23548;51.196;6.838;2023-01-15T01:55:42;7.20;99.90
37702;DHT22;23548;51.196;6.838;2023-01-15T01:58:10;7.20;99.90
37702;DHT22;23548;51.196;6.838;2023-01-15T02:00:37;7.20;99.90
37702;DHT22;23548;51.196;6.838;2023-01-15T02:03:06;7.20;99.90
37702;DHT22;23548;51.196;6.838;2023-01-15T02:05:37;7.20;99.90
37702;DHT22;23548;51.196;6.838;2023-01-15T02:08:05;7.10;99.90
37702;DHT22;23548;51.196;6.838;2023-01-15T02:10:31;7.20;99.90
37702;DHT22;23548;51.196;6.838;2023-01-15T02:13:06;7.20;99.90
37702;DHT22;23548;51.196;6.838;2023-01-15T02:15:40;7.20;99.90
37702;DHT22;23548;51.196;6.838;2023-01-15T02:20:52;7.10;99.90
37702;DHT22;23548;51.196;6.838;2023-01-15T02:28:30;7.10;99.90
37702;DHT22;23548;51.196;6.838;2023-01-15T02:31:25;7.10;99.90
37702;DHT22;23548;51.196;6.838;2023-01-15T02:34:05;7.10;99.90
37702;DHT22;23548;51.196;6.838;2023-01-15T02:36:34;7.10;99.90
37702;DHT22;23548;51.196;6.838;2023-01-15T02:39:05;7.10;99.90
37702;DHT22;23548;51.196;6.838;2023-01-15T02:41:35;7.10;99.90
37702;DHT22;23548;51.196;6.838;2023-01-15T02:44:04;7.10;99.90
37702;DHT22;23548;51.196;6.838;2023-01-15T02:46:33;7.20;99.90
37702;DHT22;23548;51.196;6.838;2023-01-15T02:49:02;7.20;99.90
37702;DHT22;23548;51.196;6.838;2023-01-15T02:51:35;7.20;99.90
37702;DHT22;23548;51.196;6.838;2023-01-15T02:54:06;7.30;99.90
37702;DHT22;23548;51.196;6.838;2023-01-15T02:56:34;7.20;99.90
37702;DHT22;23548;51.196;6.838;2023-01-15T02:59:05;7.20;99.90
37702;DHT22;23548;51.196;6.838;2023-01-15T03:01:46;7.20;99.90
37702;DHT22;23548;51.196;6.838;2023-01-15T03:04:20;7.20;99.90
37702;DHT22;23548;51.196;6.838;2023-01-15T03:07:11;7.20;99.90
37702;DHT22;23548;51.196;6.838;2023-01-15T03:09:39;7.20;99.90
37702;DHT22;23548;51.196;6.838;2023-01-15T03:12:15;7.20;99.90
37702;DHT22;23548;51.196;6.838;2023-01-15T03:14:55;7.20;99.90
37702;DHT22;23548;51.196;6.838;2023-01-15T03:17:50;7.20;99.90
37702;DHT22;23548;51.196;6.838;2023-01-15T03:20:28;7.10;99.90
37702;DHT22;23548;51.196;6.838;2023-01-15T03:23:05;7.10;99.90
37702;DHT22;23548;51.196;6.838;2023-01-15T03:25:36;7.10;99.90
37702;DHT22;23548;51.196;6.838;2023-01-15T03:28:05;7.10;99.90
37702;DHT22;23548;51.196;6.838;2023-01-15T03:30:32;7.10;99.90
37702;DHT22;23548;51.196;6.838;2023-01-15T03:32:58;7.10;99.90
37702;DHT22;23548;51.196;6.838;2023-01-15T03:38:20;7.10;99.90
37702;DHT22;23548;51.196;6.838;2023-01-15T03:43:20;7.10;99.90
37702;DHT22;23548;51.196;6.838;2023-01-15T03:46:12;7.20;99.90
37702;DHT22;23548;51.196;6.838;2023-01-15T03:48:48;7.10;99.90
37702;DHT22;23548;51.196;6.838;2023-01-15T03:51:30;7.10;99.90
37702;DHT22;23548;51.196;6.838;2023-01-15T03:53:58;7.10;99.90
37702;DHT22;23548;51.196;6.838;2023-01-15T03:56:48;7.20;99.90
37702;DHT22;23548;51.196;6.838;2023-01-15T03:59:28;7.20;99.90
37702;DHT22;23548;51.196;6.838;2023-01-15T04:01:56;7.30;99.90
37702;DHT22;23548;51.196;6.838;2023-01-15T04:04:24;7.30;99.90
37702;DHT22;23548;51.196;6.838;2023-01-15T04:06:50;7.30;99.90
37702;DHT22;23548;51.196;6.838;2023-01-15T04:09:17;7.30;99.90
37702;DHT22;23548;51.196;6.838;2023-01-15T04:11:43;7.40;99.90
37702;DHT22;23548;51.196;6.838;2023-01-15T04:14:12;7.30;99.90
37702;DHT22;23548;51.196;6.838;2023-01-15T04:16:38;7.30;99.90
37702;DHT22;23548;51.196;6.838;2023-01-15T04:19:04;7.30;99.90
37702;DHT22;23548;51.196;6.838;2023-01-15T04:21:30;7.30;99.90
37702;DHT22;23548;51.196;6.838;2023-01-15T04:23:56;7.30;99.90
37702;DHT22;23548;51.196;6.838;2023-01-15T04:26:21;7.30;99.90
37702;DHT22;23548;51.196;6.838;2023-01-15T04:28:47;7.30;99.90
37702;DHT22;23548;51.196;6.838;2023-01-15T04:31:13;7.30;99.90
37702;DHT22;23548;51.196;6.838;2023-01-15T04:33:39;7.30;99.90
37702;DHT22;23548;51.196;6.838;2023-01-15T04:36:05;7.30;99.90
37702;DHT22;23548;51.196;6.838;2023-01-15T04:38:31;7.30;99.90
37702;DHT22;23548;51.196;6.838;2023-01-15T04:41:04;7.30;99.90
37702;DHT22;23548;51.196;6.838;2023-01-15T04:43:48;7.30;99.90
37702;DHT22;23548;51.196;6.838;2023-01-15T04:46:43;7.30;99.90
37702;DHT22;23548;51.196;6.838;2023-01-15T04:49:13;7.30;99.90
37702;DHT22;23548;51.196;6.838;2023-01-15T04:51:39;7.30;99.90
37702;DHT22;23548;51.196;6.838;2023-01-15T04:54:09;7.30;99.90
37702;DHT22;23548;51.196;6.838;2023-01-15T04:56:46;7.30;99.90
37702;DHT22;23548;51.196;6.838;2023-01-15T04:59:15;7.30;99.90
37702;DHT22;23548;51.196;6.838;2023-01-15T05:01:41;7.20;99.90
37702;DHT22;23548;51.196;6.838;2023-01-15T05:04:07;7.20;99.90
37702;DHT22;23548;51.196;6.838;2023-01-15T05:06:33;7.30;99.90
37702;DHT22;23548;51.196;6.838;2023-01-15T05:09:00;7.30;99.90
37702;DHT22;23548;51.196;6.838;2023-01-15T05:11:27;7.30;99.90
37702;DHT22;23548;51.196;6.838;2023-01-15T05:13:53;7.30;99.90
37702;DHT22;23548;51.196;6.838;2023-01-15T05:16:22;7.30;99.90
37702;DHT22;23548;51.196;6.838;2023-01-15T05:18:50;7.30;99.90
37702;DHT22;23548;51.196;6.838;2023-01-15T05:21:22;7.30;99.90
37702;DHT22;23548;51.196;6.838;2023-01-15T05:23:49;7.30;99.90
37702;DHT22;23548;51.196;6.838;2023-01-15T05:26:16;7.30;99.90
37702;DHT22;23548;51.196;6.838;2023-01-15T05:28:42;7.30;99.90
37702;DHT22;23548;51.196;6.838;2023-01-15T05:31:10;7.30;99.90
37702;DHT22;23548;51.196;6.838;2023-01-15T05:33:37;7.30;99.90
37702;DHT22;23548;51.196;6.838;2023-01-15T05:36:06;7.20;99.90
37702;DHT22;23548;51.196;6.838;2023-01-15T05:38:33;7.30;99.90
37702;DHT22;23548;51.196;6.838;2023-01-15T05:41:01;7.30;99.90
37702;DHT22;23548;51.196;6.838;2023-01-15T05:43:27;7.30;99.90
37702;DHT22;23548;51.196;6.838;2023-01-15T05:45:53;7.20;99.90
37702;DHT22;23548;51.196;6.838;2023-01-15T05:48:19;7.20;99.90
37702;DHT22;23548;51.196;6.838;2023-01-15T05:50:45;7.20;99.90
37702;DHT22;23548;51.196;6.838;2023-01-15T05:53:10;7.10;99.90
37702;DHT22;23548;51.196;6.838;2023-01-15T05:55:36;7.10;99.90
37702;DHT22;23548;51.196;6.838;2023-01-15T05:58:02;7.30;99.90
37702;DHT22;23548;51.196;6.838;2023-01-15T06:00:28;7.20;99.90
37702;DHT22;23548;51.196;6.838;2023-01-15T06:02:54;7.20;99.90
37702;DHT22;23548;51.196;6.838;2023-01-15T06:05:20;7.30;99.90
37702;DHT22;23548;51.196;6.838;2023-01-15T06:07:49;7.20;99.90
37702;DHT22;23548;51.196;6.838;2023-01-15T06:10:17;7.20;99.90
37702;DHT22;23548;51.196;6.838;2023-01-15T06:12:43;7.30;99.90
37702;DHT22;23548;51.196;6.838;2023-01-15T06:15:10;7.30;99.90
37702;DHT22;23548;51.196;6.838;2023-01-15T06:17:36;7.30;99.90
37702;DHT22;23548;51.196;6.838;2023-01-15T06:20:03;7.30;99.90
37702;DHT22;23548;51.196;6.838;2023-01-15T06:22:28;7.40;99.90
37702;DHT22;23548;51.196;6.838;2023-01-15T06:24:54;7.40;99.90
37702;DHT22;23548;51.196;6.838;2023-01-15T06:27:20;7.40;99.90
37702;DHT22;23548;51.196;6.838;2023-01-15T06:29:46;7.40;99.90
37702;DHT22;23548;51.196;6.838;2023-01-15T06:32:16;7.30;99.90
37702;DHT22;23548;51.196;6.838;2023-01-15T06:34:41;7.30;99.90
37702;DHT22;23548;51.196;6.838;2023-01-15T06:37:09;7.30;99.90
37702;DHT22;23548;51.196;6.838;2023-01-15T06:39:34;7.30;99.90
37702;DHT22;23548;51.196;6.838;2023-01-15T06:42:00;7.30;99.90
37702;DHT22;23548;51.196;6.838;2023-01-15T06:44:44;7.30;99.90
37702;DHT22;23548;51.196;6.838;2023-01-15T06:47:28;7.20;99.90
37702;DHT22;23548;51.196;6.838;2023-01-15T06:49:56;7.20;99.90
37702;DHT22;23548;51.196;6.838;2023-01-15T06:52:24;7.20;99.90
37702;DHT22;23548;51.196;6.838;2023-01-15T06:54:50;7.20;99.90
37702;DHT22;23548;51.196;6.838;2023-01-15T06:57:16;7.20;99.90
37702;DHT22;23548;51.196;6.838;2023-01-15T06:59:43;7.20;99.90
37702;DHT22;23548;51.196;6.838;2023-01-15T07:02:10;7.20;99.90
37702;DHT22;23548;51.196;6.838;2023-01-15T07:04:36;7.20;99.90
37702;DHT22;23548;51.196;6.838;2023-01-15T07:07:02;7.20;99.90
37702;DHT22;23548;51.196;6.838;2023-01-15T07:09:27;7.20;99.90
37702;DHT22;23548;51.196;6.838;2023-01-15T07:11:53;7.20;99.90
37702;DHT22;23548;51.196;6.838;2023-01-15T07:14:24;7.20;99.90
37702;DHT22;23548;51.196;6.838;2023-01-15T07:16:52;7.20;99.90
37702;DHT22;23548;51.196;6.838;2023-01-15T07:19:19;7.20;99.90
37702;DHT22;23548;51.196;6.838;2023-01-15T07:21:45;7.20;99.90
37702;DHT22;23548;51.196;6.838;2023-01-15T07:24:11;7.20;99.90
37702;DHT22;23548;51.196;6.838;2023-01-15T07:26:37;7.20;99.90
37702;DHT22;23548;51.196;6.838;2023-01-15T07:29:03;7.20;99.90
37702;DHT22;23548;51.196;6.838;2023-01-15T07:31:30;7.20;99.90
37702;DHT22;23548;51.196;6.838;2023-01-15T07:33:57;7.30;99.90
37702;DHT22;23548;51.196;6.838;2023-01-15T07:36:23;7.20;99.90
37702;DHT22;23548;51.196;6.838;2023-01-15T07:38:49;7.20;99.90
37702;DHT22;23548;51.196;6.838;2023-01-15T07:41:15;7.20;99.90
37702;DHT22;23548;51.196;6.838;2023-01-15T07:43:59;7.10;99.90
37702;DHT22;23548;51.196;6.838;2023-01-15T07:46:43;7.10;99.90
37702;DHT22;23548;51.196;6.838;2023-01-15T07:49:33;7.10;99.90
37702;DHT22;23548;51.196;6.838;2023-01-15T07:52:19;7.10;99.90
37702;DHT22;23548;51.196;6.838;2023-01-15T07:54:47;7.20;99.90
37702;DHT22;23548;51.196;6.838;2023-01-15T07:57:17;7.10;99.90
37702;DHT22;23548;51.196;6.838;2023-01-15T07:59:43;7.00;99.90
37702;DHT22;23548;51.196;6.838;2023-01-15T08:02:09;7.10;99.90
37702;DHT22;23548;51.196;6.838;2023-01-15T08:04:35;7.10;99.90
37702;DHT22;23548;51.196;6.838;2023-01-15T08:07:02;7.20;99.90
37702;DHT22;23548;51.196;6.838;2023-01-15T08:09:28;7.20;99.90
37702;DHT22;23548;51.196;6.838;2023-01-15T08:11:54;7.20;99.90
37702;DHT22;23548;51.196;6.838;2023-01-15T08:14:41;7.30;99.90
37702;DHT22;23548;51.196;6.838;2023-01-15T08:17:25;7.30;99.90
37702;DHT22;23548;51.196;6.838;2023-01-15T08:19:51;7.20;99.90
37702;DHT22;23548;51.196;6.838;2023-01-15T08:22:16;7.20;99.90
37702;DHT22;23548;51.196;6.838;2023-01-15T08:24:42;7.20;99.90
37702;DHT22;23548;51.196;6.838;2023-01-15T08:27:08;7.10;99.90
37702;DHT22;23548;51.196;6.838;2023-01-15T08:29:34;7.10;99.90
37702;DHT22;23548;51.196;6.838;2023-01-15T08:32:00;7.10;99.90
37702;DHT22;23548;51.196;6.838;2023-01-15T08:34:26;7.10;99.90
37702;DHT22;23548;51.196;6.838;2023-01-15T08:36:52;7.10;99.90
37702;DHT22;23548;51.196;6.838;2023-01-15T08:39:26;7.10;99.90
37702;DHT22;23548;51.196;6.838;2023-01-15T08:41:53;7.10;99.90
37702;DHT22;23548;51.196;6.838;2023-01-15T08:44:19;7.10;99.90
37702;DHT22;23548;51.196;6.838;2023-01-15T08:46:46;7.10;99.90
37702;DHT22;23548;51.196;6.838;2023-01-15T08:49:13;7.00;99.90
37702;DHT22;23548;51.196;6.838;2023-01-15T08:51:39;7.00;99.90
37702;DHT22;23548;51.196;6.838;2023-01-15T08:54:05;7.00;99.90
37702;DHT22;23548;51.196;6.838;2023-01-15T08:56:31;6.90;99.90
37702;DHT22;23548;51.196;6.838;2023-01-15T08:58:56;6.80;99.90
37702;DHT22;23548;51.196;6.838;2023-01-15T09:01:23;6.70;99.90
37702;DHT22;23548;51.196;6.838;2023-01-15T09:03:48;6.70;99.90
37702;DHT22;23548;51.196;6.838;2023-01-15T09:06:14;6.60;99.90
37702;DHT22;23548;51.196;6.838;2023-01-15T09:08:40;6.50;99.90
37702;DHT22;23548;51.196;6.838;2023-01-15T09:11:06;6.50;99.90
37702;DHT22;23548;51.196;6.838;2023-01-15T09:13:37;6.50;99.90
37702;DHT22;23548;51.196;6.838;2023-01-15T09:16:04;6.40;99.90
37702;DHT22;23548;51.196;6.838;2023-01-15T09:18:31;6.40;99.90
37702;DHT22;23548;51.196;6.838;2023-01-15T09:20:58;6.40;99.90
37702;DHT22;23548;51.196;6.838;2023-01-15T09:23:24;6.30;99.90
37702;DHT22;23548;51.196;6.838;2023-01-15T09:25:58;6.30;99.90
37702;DHT22;23548;51.196;6.838;2023-01-15T09:28:24;6.30;99.90
37702;DHT22;23548;51.196;6.838;2023-01-15T09:30:50;6.30;99.90
37702;DHT22;23548;51.196;6.838;2023-01-15T09:33:16;6.30;99.90
37702;DHT22;23548;51.196;6.838;2023-01-15T09:35:42;6.40;99.90
37702;DHT22;23548;51.196;6.838;2023-01-15T09:38:16;6.50;99.90
37702;DHT22;23548;51.196;6.838;2023-01-15T09:40:58;6.60;99.90
37702;DHT22;23548;51.196;6.838;2023-01-15T09:55:07;6.80;99.90
37702;DHT22;23548;51.196;6.838;2023-01-15T09:57:36;6.80;99.90
37702;DHT22;23548;51.196;6.838;2023-01-15T10:00:03;7.00;99.90
37702;DHT22;23548;51.196;6.838;2023-01-15T10:02:46;7.10;99.90
37702;DHT22;23548;51.196;6.838;2023-01-15T10:08:14;7.30;99.90
37702;DHT22;23548;51.196;6.838;2023-01-15T10:10:47;7.30;99.90
37702;DHT22;23548;51.196;6.838;2023-01-15T10:15:56;7.50;99.90
37702;DHT22;23548;51.196;6.838;2023-01-15T10:18:23;7.60;99.90
37702;DHT22;23548;51.196;6.838;2023-01-15T10:26:37;8.20;99.90
37702;DHT22;23548;51.196;6.838;2023-01-15T10:37:20;8.20;99.90
37702;DHT22;23548;51.196;6.838;2023-01-15T10:40:27;8.00;99.90
37702;DHT22;23548;51.196;6.838;2023-01-15T10:46:14;8.00;99.90
37702;DHT22;23548;51.196;6.838;2023-01-15T10:48:53;8.10;99.90
37702;DHT22;23548;51.196;6.838;2023-01-15T10:51:29;8.20;99.90
37702;DHT22;23548;51.196;6.838;2023-01-15T10:54:06;8.10;99.90
37702;DHT22;23548;51.196;6.838;2023-01-15T10:57:03;8.00;99.90
37702;DHT22;23548;51.196;6.838;2023-01-15T11:00:12;8.20;99.90
37702;DHT22;23548;51.196;6.838;2023-01-15T11:02:42;8.30;99.90
37702;DHT22;23548;51.196;6.838;2023-01-15T11:05:17;8.50;99.90
37702;DHT22;23548;51.196;6.838;2023-01-15T11:07:49;8.60;99.90
37702;DHT22;23548;51.196;6.838;2023-01-15T11:10:19;8.70;99.90
37702;DHT22;23548;51.196;6.838;2023-01-15T11:12:57;8.70;99.90
37702;DHT22;23548;51.196;6.838;2023-01-15T11:15:47;8.50;99.90
37702;DHT22;23548;51.196;6.838;2023-01-15T11:18:39;8.50;99.90
37702;DHT22;23548;51.196;6.838;2023-01-15T11:21:24;8.50;99.90
37702;DHT22;23548;51.196;6.838;2023-01-15T11:23:53;8.40;99.90
37702;DHT22;23548;51.196;6.838;2023-01-15T11:26:25;8.40;99.90
37702;DHT22;23548;51.196;6.838;2023-01-15T11:28:52;8.40;99.90
37702;DHT22;23548;51.196;6.838;2023-01-15T11:31:19;8.40;99.90
37702;DHT22;23548;51.196;6.838;2023-01-15T11:34:13;8.50;99.90
37702;DHT22;23548;51.196;6.838;2023-01-15T11:36:41;8.60;99.90
37702;DHT22;23548;51.196;6.838;2023-01-15T11:39:21;8.60;99.90
37702;DHT22;23548;51.196;6.838;2023-01-15T11:41:47;8.70;99.90
37702;DHT22;23548;51.196;6.838;2023-01-15T11:44:31;8.60;99.90
37702;DHT22;23548;51.196;6.838;2023-01-15T11:47:17;8.40;99.90
37702;DHT22;23548;51.196;6.838;2023-01-15T11:50:15;8.50;99.90
37702;DHT22;23548;51.196;6.838;2023-01-15T11:53:00;8.30;99.90
37702;DHT22;23548;51.196;6.838;2023-01-15T11:55:27;8.50;99.90
37702;DHT22;23548;51.196;6.838;2023-01-15T11:57:55;8.50;99.90
37702;DHT22;23548;51.196;6.838;2023-01-15T12:00:32;8.50;99.90
37702;DHT22;23548;51.196;6.838;2023-01-15T12:03:12;8.50;99.90
37702;DHT22;23548;51.196;6.838;2023-01-15T12:11:16;8.60;99.90
37702;DHT22;23548;51.196;6.838;2023-01-15T12:25:02;8.50;99.90
37702;DHT22;23548;51.196;6.838;2023-01-15T12:27:54;8.30;99.90
37702;DHT22;23548;51.196;6.838;2023-01-15T12:31:04;8.20;99.90
37702;DHT22;23548;51.196;6.838;2023-01-15T12:36:05;8.40;99.90
37702;DHT22;23548;51.196;6.838;2023-01-15T12:38:44;8.40;99.90
37702;DHT22;23548;51.196;6.838;2023-01-15T12:44:20;8.70;99.90
37702;DHT22;23548;51.196;6.838;2023-01-15T12:47:17;8.60;99.90
37702;DHT22;23548;51.196;6.838;2023-01-15T12:49:52;8.60;99.90
37702;DHT22;23548;51.196;6.838;2023-01-15T12:52:24;8.70;99.90
37702;DHT22;23548;51.196;6.838;2023-01-15T12:57:43;8.70;99.90
37702;DHT22;23548;51.196;6.838;2023-01-15T13:02:54;8.70;99.90
37702;DHT22;23548;51.196;6.838;2023-01-15T13:05:29;8.70;99.90
37702;DHT22;23548;51.196;6.838;2023-01-15T13:10:50;8.70;99.90
37702;DHT22;23548;51.196;6.838;2023-01-15T13:13:22;8.60;99.90
37702;DHT22;23548;51.196;6.838;2023-01-15T13:18:35;8.60;99.90
37702;DHT22;23548;51.196;6.838;2023-01-15T13:21:12;8.60;99.90
37702;DHT22;23548;51.196;6.838;2023-01-15T13:32:25;8.70;99.90
37702;DHT22;23548;51.196;6.838;2023-01-15T13:35:06;8.60;99.90
37702;DHT22;23548;51.196;6.838;2023-01-15T13:37:46;8.60;99.90
37702;DHT22;23548;51.196;6.838;2023-01-15T13:40:29;8.40;99.90
37702;DHT22;23548;51.196;6.838;2023-01-15T13:42:57;8.40;99.90
37702;DHT22;23548;51.196;6.838;2023-01-15T13:45:34;8.40;99.90
37702;DHT22;23548;51.196;6.838;2023-01-15T13:48:18;8.30;99.90
37702;DHT22;23548;51.196;6.838;2023-01-15T13:50:53;8.30;99.90
37702;DHT22;23548;51.196;6.838;2023-01-15T13:53:37;8.40;99.90
37702;DHT22;23548;51.196;6.838;2023-01-15T13:56:10;8.30;99.90
37702;DHT22;23548;51.196;6.838;2023-01-15T13:59:00;8.30;99.90
37702;DHT22;23548;51.196;6.838;2023-01-15T14:04:05;8.30;99.90
37702;DHT22;23548;51.196;6.838;2023-01-15T14:06:47;8.30;99.90
37702;DHT22;23548;51.196;6.838;2023-01-15T14:28:43;8.20;99.90
37702;DHT22;23548;51.196;6.838;2023-01-15T14:36:50;8.20;99.90
37702;DHT22;23548;51.196;6.838;2023-01-15T14:39:36;8.20;99.90
37702;DHT22;23548;51.196;6.838;2023-01-15T14:42:15;8.20;99.90
37702;DHT22;23548;51.196;6.838;2023-01-15T14:45:04;8.20;99.90
37702;DHT22;23548;51.196;6.838;2023-01-15T14:47:42;8.20;99.90
37702;DHT22;23548;51.196;6.838;2023-01-15T14:50:41;8.20;99.90
37702;DHT22;23548;51.196;6.838;2023-01-15T14:55:49;8.10;99.90
37702;DHT22;23548;51.196;6.838;2023-01-15T15:00:59;8.10;99.90
37702;DHT22;23548;51.196;6.838;2023-01-15T15:03:35;8.10;99.90
37702;DHT22;23548;51.196;6.838;2023-01-15T15:06:03;8.10;99.90
37702;DHT22;23548;51.196;6.838;2023-01-15T15:08:32;8.00;99.90
37702;DHT22;23548;51.196;6.838;2023-01-15T15:11:01;8.00;99.90
37702;DHT22;23548;51.196;6.838;2023-01-15T15:13:49;8.10;99.90
37702;DHT22;23548;51.196;6.838;2023-01-15T15:16:25;8.10;99.90
37702;DHT22;23548;51.196;6.838;2023-01-15T15:19:01;8.10;99.90
37702;DHT22;23548;51.196;6.838;2023-01-15T15:21:32;8.10;99.90
37702;DHT22;23548;51.196;6.838;2023-01-15T15:24:20;8.10;99.90
37702;DHT22;23548;51.196;6.838;2023-01-15T15:26:47;8.10;99.90
37702;DHT22;23548;51.196;6.838;2023-01-15T15:29:15;8.10;99.90
37702;DHT22;23548;51.196;6.838;2023-01-15T15:31:52;8.00;99.90
37702;DHT22;23548;51.196;6.838;2023-01-15T15:36:47;8.00;99.90
37702;DHT22;23548;51.196;6.838;2023-01-15T15:39:21;8.00;99.90
37702;DHT22;23548;51.196;6.838;2023-01-15T15:41:50;8.00;99.90
37702;DHT22;23548;51.196;6.838;2023-01-15T15:44:43;8.00;99.90
37702;DHT22;23548;51.196;6.838;2023-01-15T15:47:37;8.10;99.90
37702;DHT22;23548;51.196;6.838;2023-01-15T15:50:33;7.90;99.90
37702;DHT22;23548;51.196;6.838;2023-01-15T15:53:00;7.80;99.90
37702;DHT22;23548;51.196;6.838;2023-01-15T15:55:40;7.80;99.90
37702;DHT22;23548;51.196;6.838;2023-01-15T15:58:11;7.80;99.90
37702;DHT22;23548;51.196;6.838;2023-01-15T16:00:39;7.80;99.90
37702;DHT22;23548;51.196;6.838;2023-01-15T16:03:22;7.80;99.90
37702;DHT22;23548;51.196;6.838;2023-01-15T16:08:21;7.70;99.90
37702;DHT22;23548;51.196;6.838;2023-01-15T16:11:05;7.80;99.90
37702;DHT22;23548;51.196;6.838;2023-01-15T16:13:50;7.70;99.90
37702;DHT22;23548;51.196;6.838;2023-01-15T16:16:19;7.80;99.90
37702;DHT22;23548;51.196;6.838;2023-01-15T16:18:50;7.80;99.90
37702;DHT22;23548;51.196;6.838;2023-01-15T16:24:03;7.80;99.90
37702;DHT22;23548;51.196;6.838;2023-01-15T16:29:03;7.80;99.90
37702;DHT22;23548;51.196;6.838;2023-01-15T16:31:34;7.70;99.90
37702;DHT22;23548;51.196;6.838;2023-01-15T16:34:01;7.70;99.90
37702;DHT22;23548;51.196;6.838;2023-01-15T16:36:27;7.70;99.90
37702;DHT22;23548;51.196;6.838;2023-01-15T16:39:02;7.70;99.90
37702;DHT22;23548;51.196;6.838;2023-01-15T16:41:36;7.70;99.90
37702;DHT22;23548;51.196;6.838;2023-01-15T16:44:05;7.60;99.90
37702;DHT22;23548;51.196;6.838;2023-01-15T16:46:48;7.70;99.90
37702;DHT22;23548;51.196;6.838;2023-01-15T16:51:50;7.60;99.90
37702;DHT22;23548;51.196;6.838;2023-01-15T17:02:14;7.60;99.90
37702;DHT22;23548;51.196;6.838;2023-01-15T17:04:43;7.60;99.90
37702;DHT22;23548;51.196;6.838;2023-01-15T17:07:17;7.70;99.90
37702;DHT22;23548;51.196;6.838;2023-01-15T17:09:47;7.60;99.90
37702;DHT22;23548;51.196;6.838;2023-01-15T17:12:36;7.60;99.90
37702;DHT22;23548;51.196;6.838;2023-01-15T17:17:47;7.60;99.90
37702;DHT22;23548;51.196;6.838;2023-01-15T17:20:14;7.70;99.90
37702;DHT22;23548;51.196;6.838;2023-01-15T17:22:42;7.80;99.90
37702;DHT22;23548;51.196;6.838;2023-01-15T17:27:47;7.70;99.90
37702;DHT22;23548;51.196;6.838;2023-01-15T17:30:13;7.70;99.90
37702;DHT22;23548;51.196;6.838;2023-01-15T17:32:39;7.70;99.90
37702;DHT22;23548;51.196;6.838;2023-01-15T17:35:24;7.50;99.90
37702;DHT22;23548;51.196;6.838;2023-01-15T17:37:51;7.50;99.90
37702;DHT22;23548;51.196;6.838;2023-01-15T17:40:18;7.50;99.90
37702;DHT22;23548;51.196;6.838;2023-01-15T17:42:44;7.60;99.90
37702;DHT22;23548;51.196;6.838;2023-01-15T17:45:25;7.50;99.90
37702;DHT22;23548;51.196;6.838;2023-01-15T17:47:51;7.40;99.90
37702;DHT22;23548;51.196;6.838;2023-01-15T17:50:18;7.50;99.90
37702;DHT22;23548;51.196;6.838;2023-01-15T17:52:44;7.50;99.90
37702;DHT22;23548;51.196;6.838;2023-01-15T17:55:21;7.40;99.90
37702;DHT22;23548;51.196;6.838;2023-01-15T17:58:11;7.40;99.90
37702;DHT22;23548;51.196;6.838;2023-01-15T18:00:56;7.40;99.90
37702;DHT22;23548;51.196;6.838;2023-01-15T18:03:51;7.30;99.90
37702;DHT22;23548;51.196;6.838;2023-01-15T18:06:36;7.20;99.90
37702;DHT22;23548;51.196;6.838;2023-01-15T18:09:04;7.20;99.90
37702;DHT22;23548;51.196;6.838;2023-01-15T18:11:31;7.20;99.90
37702;DHT22;23548;51.196;6.838;2023-01-15T18:13:58;7.10;99.90
37702;DHT22;23548;51.196;6.838;2023-01-15T18:16:24;7.20;99.90
37702;DHT22;23548;51.196;6.838;2023-01-15T18:18:53;7.10;99.90
37702;DHT22;23548;51.196;6.838;2023-01-15T18:21:20;7.10;99.90
37702;DHT22;23548;51.196;6.838;2023-01-15T18:23:46;7.10;99.90
37702;DHT22;23548;51.196;6.838;2023-01-15T18:26:13;7.00;99.90
37702;DHT22;23548;51.196;6.838;2023-01-15T18:28:40;7.00;99.90
37702;DHT22;23548;51.196;6.838;2023-01-15T18:31:07;7.10;99.90
37702;DHT22;23548;51.196;6.838;2023-01-15T18:33:33;7.00;99.90
37702;DHT22;23548;51.196;6.838;2023-01-15T18:36:08;7.00;99.90
37702;DHT22;23548;51.196;6.838;2023-01-15T18:38:35;7.00;99.90
37702;DHT22;23548;51.196;6.838;2023-01-15T18:41:12;7.20;99.90
37702;DHT22;23548;51.196;6.838;2023-01-15T18:43:58;7.10;99.90
37702;DHT22;23548;51.196;6.838;2023-01-15T18:46:43;7.10;99.90